Time;durP1;ratioP1;P1;durP2;ratioP2;P2;SDS_P1;SDS_P2;PMS_P1;PMS_P2;Temp;Humidity;BMP_temperature;BMP_pressure;BME280_temperature;BME280_humidity;BME280_pressure;Samples;Min_cycle;Max_cycle;Signal;HPM_P1;HPM_P2
2022/06/27 00:00:48;;;;;;;3.90;3.60;;;;;;;20.66;65.26;99928.93;109197;1274;138940;-68
2022/06/27 00:03:14;;;;;;;5.00;3.50;;;;;;;20.66;65.28;99925.77;109315;1274;23018;-69
2022/06/27 00:05:41;;;;;;;5.50;3.40;;;;;;;20.66;65.39;99927.36;109137;1274;139145;-68
2022/06/27 00:08:08;;;;;;;5.90;3.90;;;;;;;20.66;65.44;99928.05;109306;1274;22864;-68
2022/06/27 00:10:35;;;;;;;4.10;3.60;;;;;;;20.66;65.55;99929.55;109303;1274;138448;-67
2022/06/27 00:13:02;;;;;;;3.50;3.20;;;;;;;20.65;65.56;99928.50;109437;1274;23131;-68
2022/06/27 00:15:29;;;;;;;3.70;3.20;;;;;;;20.63;65.71;99928.23;109284;1274;22449;-68
2022/06/27 00:17:57;;;;;;;3.60;3.10;;;;;;;20.58;65.81;99929.20;109221;1273;139469;-68
2022/06/27 00:20:24;;;;;;;6.40;3.30;;;;;;;20.51;65.97;99927.19;109366;1272;22433;-68
2022/06/27 00:22:52;;;;;;;6.90;3.60;;;;;;;20.45;66.19;99926.70;109165;1274;138525;-68
2022/06/27 00:25:19;;;;;;;4.60;3.50;;;;;;;20.37;66.28;99922.77;109333;1274;22443;-69
2022/06/27 00:27:46;;;;;;;4.50;3.60;;;;;;;20.29;66.43;99927.70;109267;1274;22486;-68
2022/06/27 00:30:12;;;;;;;5.70;3.50;;;;;;;20.21;66.73;99924.29;109208;1273;139233;-69
2022/06/27 00:32:39;;;;;;;7.20;3.50;;;;;;;20.12;66.93;99926.58;109335;1274;22384;-68
2022/06/27 00:35:07;;;;;;;6.60;3.70;;;;;;;20.03;67.27;99926.45;109170;1273;139102;-68
2022/06/27 00:37:34;;;;;;;6.10;3.60;;;;;;;19.99;67.34;99928.66;109295;1274;22532;-68
2022/06/27 00:40:04;;;;;;;5.50;3.20;;;;;;;19.92;67.61;99929.85;109376;1273;23501;-68
2022/06/27 00:42:31;;;;;;;4.40;3.40;;;;;;;19.85;67.80;99930.08;109251;1274;138290;-68
2022/06/27 00:44:58;;;;;;;5.20;3.70;;;;;;;19.76;67.83;99935.45;109345;1273;22418;-68
2022/06/27 00:47:25;;;;;;;4.60;3.50;;;;;;;19.66;68.21;99933.89;105080;1274;138066;-68
2022/06/27 00:49:52;;;;;;;5.80;3.70;;;;;;;19.57;68.58;99933.21;104965;1274;23482;-68
2022/06/27 00:52:19;;;;;;;4.90;3.60;;;;;;;19.47;68.79;99933.98;104950;1274;22769;-67
2022/06/27 00:54:46;;;;;;;5.40;3.20;;;;;;;19.36;69.02;99934.23;104880;1274;138523;-67
2022/06/27 00:57:15;;;;;;;4.40;3.30;;;;;;;19.27;69.42;99933.44;109259;1274;22496;-68
2022/06/27 00:59:42;;;;;;;5.40;3.60;;;;;;;19.18;69.50;99936.75;109232;1274;138381;-68
2022/06/27 01:02:09;;;;;;;5.20;4.10;;;;;;;19.08;69.88;99939.42;109317;1274;22417;-67
2022/06/27 01:04:36;;;;;;;5.70;3.60;;;;;;;19.00;70.19;99939.84;109098;1274;138700;-67
2022/06/27 01:07:05;;;;;;;4.20;3.50;;;;;;;18.93;70.57;99940.34;109181;1274;22458;-68
2022/06/27 01:09:39;;;;;;;4.00;3.60;;;;;;;18.86;70.74;99939.15;109171;1274;22413;-68
2022/06/27 01:12:06;;;;;;;3.90;3.60;;;;;;;18.79;71.07;99940.42;109213;1274;140214;-68
2022/06/27 01:14:33;;;;;;;3.90;3.50;;;;;;;18.73;71.42;99943.14;109210;1274;22638;-68
2022/06/27 01:16:59;;;;;;;4.60;3.80;;;;;;;18.67;71.77;99945.21;105935;1274;139582;-67
2022/06/27 01:19:27;;;;;;;4.10;3.70;;;;;;;18.61;71.96;99945.04;105001;1274;24254;-67
2022/06/27 01:21:56;;;;;;;4.10;3.70;;;;;;;18.54;72.11;99944.29;104756;1276;24280;-66
2022/06/27 01:24:25;;;;;;;4.80;3.70;;;;;;;18.50;72.34;99946.83;109225;1273;140176;-68
2022/06/27 01:26:52;;;;;;;4.60;3.30;;;;;;;18.44;72.50;99942.30;109185;1274;23118;-68
2022/06/27 01:29:20;;;;;;;6.30;3.40;;;;;;;18.38;72.61;99947.84;109231;1274;139751;-68
2022/06/27 01:31:47;;;;;;;5.20;3.60;;;;;;;18.33;73.01;99946.97;109203;1274;22460;-68
2022/06/27 01:34:14;;;;;;;6.00;4.00;;;;;;;18.28;72.91;99947.58;109252;1273;23202;-68
2022/06/27 01:36:43;;;;;;;4.30;3.90;;;;;;;18.22;73.25;99947.98;109111;1274;139424;-68
2022/06/27 01:39:33;;;;;;;4.10;3.70;;;;;;;18.16;73.34;99944.54;109328;1274;22472;-68
2022/06/27 01:42:01;;;;;;;4.50;4.10;;;;;;;18.11;73.69;99945.16;109245;1273;139397;-68
2022/06/27 01:44:30;;;;;;;4.20;3.80;;;;;;;18.07;73.90;99949.84;109267;1274;23248;-68
2022/06/27 01:46:59;;;;;;;4.30;3.50;;;;;;;18.04;74.14;99947.56;109230;1273;139082;-68
2022/06/27 01:49:28;;;;;;;6.10;3.80;;;;;;;18.01;74.04;99946.02;109374;1273;22563;-68
2022/06/27 01:51:55;;;;;;;4.60;3.80;;;;;;;17.96;73.95;99947.79;109227;1273;22538;-68
2022/06/27 01:54:23;;;;;;;5.80;4.10;;;;;;;17.92;74.34;99947.27;109111;1274;139160;-68
2022/06/27 01:56:50;;;;;;;6.30;4.10;;;;;;;17.88;74.48;99947.02;106319;1273;22600;-68
2022/06/27 01:59:19;;;;;;;5.40;3.50;;;;;;;17.86;74.35;99946.01;104868;1274;140662;-67
2022/06/27 02:01:46;;;;;;;4.20;3.70;;;;;;;17.82;74.78;99944.55;109344;1273;22437;-69
2022/06/27 02:04:14;;;;;;;6.00;3.60;;;;;;;17.80;75.07;99947.50;109371;1273;22547;-69
2022/06/27 02:06:41;;;;;;;6.90;3.70;;;;;;;17.80;75.32;99946.11;109229;1274;139506;-69
2022/06/27 02:09:10;;;;;;;4.90;3.90;;;;;;;17.82;75.53;99951.40;109303;1273;22404;-68
2022/06/27 02:11:37;;;;;;;4.70;4.30;;;;;;;17.85;75.80;99952.35;109265;1273;138579;-69
2022/06/27 02:14:09;;;;;;;4.70;3.90;;;;;;;17.90;76.03;99949.97;109163;1274;22531;-68
2022/06/27 02:16:38;;;;;;;5.20;4.10;;;;;;;17.96;76.02;99953.91;109226;1273;138944;-69
2022/06/27 02:19:05;;;;;;;5.20;3.70;;;;;;;18.04;76.02;99957.00;109375;1274;23162;-69
2022/06/27 02:21:32;;;;;;;5.70;4.10;;;;;;;18.13;75.89;99955.72;109225;1274;23415;-68
2022/06/27 02:23:59;;;;;;;4.50;3.50;;;;;;;18.23;75.74;99958.71;109259;1273;139929;-68
2022/06/27 02:26:31;;;;;;;5.90;4.20;;;;;;;18.31;75.61;99957.45;109251;1273;222932;-68
2022/06/27 02:31:00;;;;;;;5.20;3.60;;;;;;;18.48;75.26;99963.58;101414;1315;564032;-68
2022/06/27 02:33:35;;;;;;;4.10;3.70;;;;;;;18.54;75.02;99964.38;103701;1289;23447;-68
2022/06/27 02:36:03;;;;;;;5.50;4.30;;;;;;;18.62;74.89;99969.46;107635;1289;139432;-68
2022/06/27 02:38:31;;;;;;;4.80;3.90;;;;;;;18.68;74.81;99965.11;107943;1289;22505;-68
2022/06/27 02:40:59;;;;;;;3.90;3.60;;;;;;;18.76;74.53;99967.92;107563;1290;137707;-68
2022/06/27 02:43:28;;;;;;;4.70;4.10;;;;;;;18.83;74.31;99969.79;107798;1289;22443;-68
2022/06/27 02:45:55;;;;;;;7.30;4.40;;;;;;;18.91;73.99;99971.64;108035;1286;22468;-68
2022/06/27 02:48:23;;;;;;;6.00;4.00;;;;;;;19.01;73.88;99970.15;108016;1287;138606;-68
2022/06/27 02:50:59;;;;;;;6.90;3.80;;;;;;;19.11;73.51;99971.89;108008;1286;22463;-69
2022/06/27 02:53:27;;;;;;;8.30;4.00;;;;;;;19.21;73.13;99971.38;107951;1286;139406;-69
2022/06/27 02:56:04;;;;;;;8.10;4.70;;;;;;;19.31;72.78;99972.77;108012;1286;22256;-68
2022/06/27 02:58:42;;;;;;;6.40;4.10;;;;;;;19.42;72.41;99968.58;108075;1286;22611;-66
2022/06/27 03:01:09;;;;;;;5.30;4.00;;;;;;;19.53;72.12;99965.45;108075;1286;22475;-68
2022/06/27 03:03:36;;;;;;;6.60;3.40;;;;;;;19.62;71.74;99969.64;108022;1286;23299;-66
2022/06/27 03:06:04;;;;;;;6.50;3.70;;;;;;;19.72;71.48;99969.63;107752;1286;139283;-68
2022/06/27 03:08:42;;;;;;;5.00;4.20;;;;;;;19.79;71.11;99972.33;107984;1286;22571;-68
2022/06/27 03:11:10;;;;;;;4.50;4.10;;;;;;;19.89;70.83;99970.54;107929;1286;138137;-67
2022/06/27 03:13:37;;;;;;;4.60;3.50;;;;;;;19.97;70.78;99968.52;108455;1282;22559;-67
2022/06/27 03:16:04;;;;;;;7.60;4.60;;;;;;;20.05;70.58;99969.80;108452;1283;23592;-66
2022/06/27 03:18:31;;;;;;;6.60;4.00;;;;;;;20.12;70.42;99972.63;108127;1283;137813;-67
2022/06/27 03:21:11;;;;;;;6.90;4.40;;;;;;;20.19;70.57;99970.81;108546;1282;22519;-67
2022/06/27 03:23:40;;;;;;;7.40;4.00;;;;;;;20.26;70.36;99971.44;108162;1281;138268;-67
2022/06/27 03:26:07;;;;;;;9.20;4.20;;;;;;;20.32;70.21;99972.08;108409;1284;22475;-66
2022/06/27 03:28:34;;;;;;;5.40;4.10;;;;;;;20.38;70.26;99971.45;108283;1284;22530;-68
2022/06/27 03:31:02;;;;;;;7.70;4.30;;;;;;;20.42;70.21;99974.19;108316;1284;22475;-67
2022/06/27 03:33:32;;;;;;;4.40;3.90;;;;;;;20.51;69.84;99978.02;108274;1284;22547;-68
2022/06/27 03:36:23;;;;;;;5.30;3.70;;;;;;;20.59;69.40;99979.34;108162;1284;138257;-68
2022/06/27 03:38:50;;;;;;;6.10;3.90;;;;;;;20.65;69.28;99977.86;108481;1283;23746;-67
2022/06/27 03:41:18;;;;;;;6.90;4.20;;;;;;;20.74;68.97;99977.09;108244;1284;138675;-66
2022/06/27 03:43:45;;;;;;;3.90;3.60;;;;;;;20.83;68.70;99980.57;108343;1285;22506;-66
2022/06/27 03:46:12;;;;;;;4.10;3.40;;;;;;;20.92;68.31;99978.13;108348;1283;22534;-67
2022/06/27 03:51:55;;;;;;;5.10;3.50;;;;;;;21.14;67.08;99973.31;108241;1284;23163;-67
2022/06/27 03:54:22;;;;;;;5.40;3.30;;;;;;;21.23;66.58;99974.60;108271;1286;137634;-66
2022/06/27 03:56:49;;;;;;;3.50;3.20;;;;;;;21.32;66.08;99975.89;108192;1284;22433;-67
2022/06/27 03:59:16;;;;;;;4.00;3.10;;;;;;;21.43;65.61;99979.83;108350;1284;138997;-67
2022/06/27 04:01:43;;;;;;;8.60;3.60;;;;;;;21.51;65.14;99976.92;108502;1282;23164;-67
2022/06/27 04:04:10;;;;;;;4.00;3.60;;;;;;;21.59;64.88;99973.21;108292;1284;22562;-67
2022/06/27 04:06:39;;;;;;;3.30;3.00;;;;;;;21.66;64.58;99972.67;108606;1280;137148;-67
2022/06/27 04:09:10;;;;;;;5.30;4.40;;;;;;;21.74;64.19;99974.32;108722;1281;23437;-67
2022/06/27 04:11:37;;;;;;;6.30;3.50;;;;;;;21.80;64.08;99971.85;108793;1280;138663;-66
2022/06/27 04:14:03;;;;;;;5.50;3.60;;;;;;;21.86;64.25;99974.84;108684;1281;22506;-67
2022/06/27 04:16:39;;;;;;;4.60;3.30;;;;;;;21.94;64.07;99973.33;108636;1281;137345;-66
2022/06/27 04:19:45;;;;;;;3.80;3.50;;;;;;;22.03;63.40;99974.48;108620;1281;22480;-67
2022/06/27 04:22:12;;;;;;;4.30;3.40;;;;;;;22.09;63.25;99976.79;108740;1281;22418;-67
2022/06/27 04:24:57;;;;;;;5.30;3.20;;;;;;;22.15;62.97;99974.95;108681;1281;138569;-68
2022/06/27 04:27:45;;;;;;;5.90;3.20;;;;;;;22.20;62.64;99972.89;104311;1283;22691;-67
2022/06/27 04:30:16;;;;;;;4.70;3.40;;;;;;;22.25;62.45;99963.81;107214;1280;138205;-68
2022/06/27 04:32:44;;;;;;;4.30;3.80;;;;;;;22.29;62.70;99966.23;108676;1281;22639;-68
2022/06/27 04:35:11;;;;;;;6.70;3.90;;;;;;;22.33;62.93;99968.73;108479;1281;139032;-67
2022/06/27 04:37:41;;;;;;;4.30;3.30;;;;;;;22.38;63.10;99969.67;108672;1281;22475;-67
2022/06/27 04:40:26;;;;;;;7.70;3.70;;;;;;;22.45;63.10;99971.81;108811;1281;22542;-68
2022/06/27 04:42:56;;;;;;;5.00;3.60;;;;;;;22.51;62.66;99974.55;108586;1281;138612;-68
2022/06/27 04:45:23;;;;;;;8.00;3.30;;;;;;;22.58;62.50;99979.43;108699;1281;22419;-67
2022/06/27 04:47:55;;;;;;;4.10;3.70;;;;;;;22.66;62.33;99975.66;108574;1281;138385;-67
2022/06/27 04:50:23;;;;;;;3.60;3.20;;;;;;;22.72;62.10;99976.97;108621;1281;23433;-67
2022/06/27 04:52:50;;;;;;;6.10;3.80;;;;;;;22.79;61.96;99974.13;108672;1281;138051;-67
2022/06/27 04:55:17;;;;;;;6.60;3.40;;;;;;;22.84;61.88;99975.48;108674;1281;22480;-67
2022/06/27 04:57:48;;;;;;;7.70;4.00;;;;;;;22.91;61.89;99972.13;108691;1281;22416;-68
2022/06/27 05:00:16;;;;;;;7.10;4.00;;;;;;;22.98;61.51;99975.27;108578;1281;138819;-68
2022/06/27 05:03:17;;;;;;;5.50;3.90;;;;;;;23.05;61.17;99971.73;108659;1280;22435;-67
2022/06/27 05:05:50;;;;;;;4.60;4.00;;;;;;;23.09;61.03;99969.58;108553;1281;137603;-68
2022/06/27 05:08:17;;;;;;;8.60;3.90;;;;;;;23.12;61.17;99968.60;108661;1281;22439;-67
2022/06/27 05:10:45;;;;;;;9.00;4.30;;;;;;;23.17;61.21;99972.39;108484;1281;137062;-65
2022/06/27 05:13:12;;;;;;;5.70;3.60;;;;;;;23.23;61.19;99971.33;108822;1281;23292;-67
2022/06/27 05:15:39;;;;;;;5.00;4.00;;;;;;;23.32;61.15;99973.63;108762;1281;22416;-68
2022/06/27 05:18:06;;;;;;;6.60;4.10;;;;;;;23.43;61.01;99972.64;108714;1280;137809;-66
2022/06/27 05:20:33;;;;;;;6.10;3.40;;;;;;;23.58;60.31;99974.25;108742;1280;22512;-66
2022/06/27 05:23:00;;;;;;;4.70;4.30;;;;;;;23.77;60.14;99981.63;108581;1280;137958;-66
2022/06/27 05:25:28;;;;;;;4.00;3.60;;;;;;;24.00;60.20;99976.00;108860;1280;22576;-67
2022/06/27 05:27:56;;;;;;;4.70;4.20;;;;;;;24.31;59.87;99976.39;108730;1280;23256;-67
2022/06/27 05:30:23;;;;;;;8.30;4.20;;;;;;;24.68;59.10;99974.36;108690;1281;138570;-67
2022/06/27 05:32:50;;;;;;;5.00;4.30;;;;;;;25.09;57.83;99970.27;108722;1281;22533;-67
2022/06/27 05:35:17;;;;;;;7.80;4.60;;;;;;;25.48;56.27;99967.96;108536;1281;139056;-66
2022/06/27 05:37:45;;;;;;;4.60;4.00;;;;;;;25.78;55.50;99969.55;108933;1280;23491;-66
2022/06/27 05:40:12;;;;;;;8.40;3.90;;;;;;;26.03;54.86;99965.17;108876;1281;22517;-67
2022/06/27 05:42:40;;;;;;;5.60;4.10;;;;;;;26.29;54.17;99973.38;108755;1279;137874;-68
2022/06/27 05:45:08;;;;;;;6.80;4.20;;;;;;;26.48;53.19;99972.51;108872;1280;22426;-67
2022/06/27 05:47:44;;;;;;;5.30;4.60;;;;;;;26.62;52.89;99976.61;108590;1281;137977;-66
2022/06/27 05:50:17;;;;;;;6.40;4.20;;;;;;;26.63;52.46;99973.86;108630;1281;22523;-67
2022/06/27 05:52:45;;;;;;;4.60;4.20;;;;;;;26.56;52.84;99970.45;108499;1281;137515;-67
2022/06/27 05:55:12;;;;;;;6.40;4.00;;;;;;;26.49;53.00;99974.92;108807;1280;22447;-66
2022/06/27 05:57:39;;;;;;;7.20;4.00;;;;;;;26.37;52.90;99983.61;108942;1279;22481;-67
2022/06/27 06:00:08;;;;;;;5.90;4.90;;;;;;;26.23;53.32;99990.88;108688;1280;137554;-66
2022/06/27 06:02:39;;;;;;;6.30;4.50;;;;;;;26.06;53.59;99987.86;108996;1278;23473;-66
2022/06/27 06:05:11;;;;;;;5.40;4.50;;;;;;;25.92;53.92;99994.20;108718;1280;139547;-66
2022/06/27 06:07:39;;;;;;;9.30;5.30;;;;;;;25.80;54.21;99985.17;108832;1278;22449;-65
2022/06/27 06:10:07;;;;;;;7.00;4.40;;;;;;;25.71;54.56;99988.55;108861;1280;23313;-66
2022/06/27 06:12:34;;;;;;;6.60;4.80;;;;;;;25.62;54.51;99983.15;108797;1280;137777;-66
2022/06/27 06:15:03;;;;;;;12.70;4.60;;;;;;;25.51;55.07;99980.34;109003;1280;22561;-65
2022/06/27 06:17:34;;;;;;;4.70;4.30;;;;;;;25.43;55.32;99983.41;108776;1280;137751;-67
2022/06/27 06:20:05;;;;;;;7.20;4.30;;;;;;;25.34;55.78;99986.94;108914;1280;22454;-66
2022/06/27 06:22:32;;;;;;;10.30;4.50;;;;;;;25.30;55.93;99986.22;109060;1279;22468;-66
2022/06/27 06:24:59;;;;;;;6.50;4.30;;;;;;;25.27;56.29;99984.67;108522;1281;137511;-66
2022/06/27 06:27:27;;;;;;;6.10;5.00;;;;;;;25.24;55.95;99980.69;108929;1280;23283;-66
2022/06/27 06:29:54;;;;;;;7.10;4.90;;;;;;;25.21;56.06;99981.45;108803;1280;137278;-65
2022/06/27 06:32:22;;;;;;;4.70;4.30;;;;;;;25.18;56.05;99985.08;109039;1279;22415;-66
2022/06/27 06:34:50;;;;;;;5.90;4.20;;;;;;;25.15;56.40;99986.48;108642;1280;139114;-66
2022/06/27 06:37:17;;;;;;;6.50;4.00;;;;;;;25.13;56.70;99981.15;108888;1280;22407;-66
2022/06/27 06:39:45;;;;;;;4.10;3.80;;;;;;;25.14;56.37;99977.11;107610;1278;22561;-66
2022/06/27 06:42:12;;;;;;;10.90;4.20;;;;;;;25.15;56.16;99977.06;104524;1280;138650;-66
2022/06/27 06:45:06;;;;;;;6.00;4.20;;;;;;;25.16;56.13;99973.77;104622;1280;22614;-66
2022/06/27 06:47:45;;;;;;;6.60;4.80;;;;;;;25.21;56.19;99975.08;104552;1280;137869;-65
2022/06/27 06:50:19;;;;;;;9.00;4.80;;;;;;;25.24;56.35;99978.38;108697;1280;22446;-66
2022/06/27 06:52:49;;;;;;;5.90;4.30;;;;;;;25.29;56.34;99972.95;108705;1281;139146;-66
2022/06/27 06:55:16;;;;;;;6.80;4.40;;;;;;;25.34;56.10;99971.71;108694;1280;22461;-67
2022/06/27 06:57:43;;;;;;;8.90;3.60;;;;;;;25.37;56.18;99969.29;108812;1280;22465;-66
2022/06/27 07:00:10;;;;;;;5.20;3.20;;;;;;;25.44;56.19;99971.23;108595;1281;138937;-66
2022/06/27 07:02:37;;;;;;;13.90;4.50;;;;;;;25.54;56.52;99970.95;108814;1280;22436;-66
2022/06/27 07:05:08;;;;;;;6.30;3.80;;;;;;;25.64;56.08;99971.89;108556;1281;139330;-65
2022/06/27 07:07:36;;;;;;;7.40;4.30;;;;;;;25.72;55.60;99975.96;108817;1280;22472;-66
2022/06/27 07:10:04;;;;;;;9.90;4.30;;;;;;;25.76;55.08;99975.02;108723;1281;22565;-67
2022/06/27 07:12:33;;;;;;;4.70;4.30;;;;;;;25.80;55.16;99976.73;108719;1280;137620;-66
2022/06/27 07:15:01;;;;;;;6.60;4.30;;;;;;;25.85;54.45;99976.97;108651;1281;22472;-67
2022/06/27 07:17:28;;;;;;;5.40;4.40;;;;;;;25.91;54.32;99979.30;108767;1280;137253;-67
2022/06/27 07:19:56;;;;;;;5.20;3.70;;;;;;;25.97;54.08;99978.79;108796;1281;22518;-66
2022/06/27 07:22:23;;;;;;;6.70;4.70;;;;;;;26.02;53.77;99979.83;108777;1281;22727;-66
2022/06/27 07:24:50;;;;;;;17.20;4.90;;;;;;;26.08;53.98;99976.77;108790;1280;137542;-65
2022/06/27 07:27:17;;;;;;;6.70;4.40;;;;;;;26.17;53.75;99985.89;108756;1281;22471;-66
2022/06/27 07:29:44;;;;;;;9.30;4.50;;;;;;;26.26;53.13;99983.09;108662;1281;137491;-66
2022/06/27 07:32:11;;;;;;;5.30;4.40;;;;;;;26.32;53.05;99985.67;108607;1282;22528;-66
2022/06/27 07:34:38;;;;;;;8.50;4.20;;;;;;;26.38;52.83;99984.35;108780;1281;138535;-66
2022/06/27 07:37:05;;;;;;;6.70;4.00;;;;;;;26.43;52.86;99987.13;108839;1280;22468;-66
2022/06/27 07:39:32;;;;;;;5.30;4.20;;;;;;;26.48;52.64;99985.20;108927;1279;22479;-65
2022/06/27 07:41:59;;;;;;;4.00;3.60;;;;;;;26.53;52.41;99984.96;108612;1281;137743;-66
2022/06/27 07:44:26;;;;;;;6.60;4.20;;;;;;;26.58;51.52;99986.07;108923;1279;22477;-66
2022/06/27 07:46:56;;;;;;;7.30;3.90;;;;;;;26.62;51.86;99991.70;108598;1282;137427;-66
2022/06/27 07:49:23;;;;;;;5.30;4.10;;;;;;;26.67;52.34;99986.98;108929;1280;24159;-66
2022/06/27 07:51:50;;;;;;;5.70;4.20;;;;;;;26.72;52.19;99989.75;108832;1280;23233;-66
2022/06/27 07:54:19;;;;;;;11.00;4.50;;;;;;;26.77;52.22;99994.55;108796;1280;137326;-67
2022/06/27 07:56:46;;;;;;;6.90;4.30;;;;;;;26.81;52.40;99990.25;108712;1281;22460;-66
2022/06/27 07:59:29;;;;;;;7.70;5.10;;;;;;;26.84;52.49;99990.52;108745;1280;137933;-67
2022/06/27 08:01:56;;;;;;;4.60;4.00;;;;;;;26.88;52.88;99989.41;108920;1280;22559;-66
2022/06/27 08:04:23;;;;;;;7.10;4.60;;;;;;;26.92;52.67;99991.02;108855;1280;22558;-66
2022/06/27 08:06:51;;;;;;;8.20;4.80;;;;;;;26.98;52.71;99990.95;105833;1280;137740;-65
2022/06/27 08:09:20;;;;;;;6.90;4.30;;;;;;;27.03;52.81;99989.48;104623;1281;24113;-65
2022/06/27 08:11:47;;;;;;;6.20;4.40;;;;;;;27.06;52.56;99989.10;108813;1280;138506;-65
2022/06/27 08:14:17;;;;;;;6.60;4.40;;;;;;;27.08;52.68;99985.71;108692;1281;22474;-66
2022/06/27 08:16:49;;;;;;;4.80;4.40;;;;;;;27.08;52.42;99987.25;106154;1281;137544;-65
2022/06/27 08:19:18;;;;;;;6.60;4.10;;;;;;;27.09;52.41;99986.24;108076;1280;23733;-66
2022/06/27 08:21:45;;;;;;;16.40;6.10;;;;;;;27.14;52.10;99988.59;104662;1280;24109;-65
2022/06/27 08:24:16;;;;;;;6.50;3.90;;;;;;;27.21;52.14;99990.96;104519;1280;138102;-65
2022/06/27 08:26:44;;;;;;;8.90;4.10;;;;;;;27.33;51.31;99990.55;104576;1282;24242;-63
2022/06/27 08:29:11;;;;;;;7.20;4.90;;;;;;;27.41;50.50;99987.18;104413;1283;139062;-66
2022/06/27 08:31:39;;;;;;;6.50;4.40;;;;;;;27.48;51.31;99985.27;104441;1281;25402;-63
2022/06/27 08:34:06;;;;;;;10.80;4.20;;;;;;;27.58;51.22;99985.02;104603;1280;25511;-67
2022/06/27 08:36:35;;;;;;;4.90;3.90;;;;;;;27.72;50.08;99984.50;105686;1282;139162;-68
2022/06/27 08:39:05;;;;;;;9.30;4.10;;;;;;;27.84;48.58;99981.66;108909;1280;22998;-65
2022/06/27 08:41:32;;;;;;;6.80;4.10;;;;;;;27.89;48.21;99982.02;108760;1281;137476;-65
2022/06/27 08:44:00;;;;;;;5.40;4.20;;;;;;;27.87;48.38;99977.72;108780;1281;23039;-66
2022/06/27 08:46:28;;;;;;;7.20;4.20;;;;;;;27.82;48.72;99978.66;108923;1280;22445;-66
2022/06/27 08:48:55;;;;;;;9.00;4.70;;;;;;;27.77;48.66;99977.09;107976;1281;137128;-66
2022/06/27 08:51:22;;;;;;;5.60;4.30;;;;;;;27.72;48.76;99970.48;104883;1280;22559;-66
2022/06/27 08:53:52;;;;;;;7.90;4.30;;;;;;;27.71;49.34;99977.89;104786;1280;137695;-65
2022/06/27 08:56:20;;;;;;;5.70;4.20;;;;;;;27.74;48.97;99971.41;104435;1283;22568;-66
2022/06/27 08:58:47;;;;;;;6.60;4.20;;;;;;;27.77;49.42;99967.98;104473;1281;137601;-66
2022/06/27 09:01:16;;;;;;;6.90;4.20;;;;;;;27.82;49.74;99972.73;104736;1281;22788;-66
2022/06/27 09:04:04;;;;;;;6.60;4.80;;;;;;;27.85;48.57;99968.64;108941;1280;22492;-66
2022/06/27 09:06:33;;;;;;;7.50;3.70;;;;;;;27.84;48.01;99975.02;108642;1281;139585;-66
2022/06/27 09:09:08;;;;;;;3.70;3.10;;;;;;;27.82;47.76;99978.84;108796;1280;22540;-67
2022/06/27 09:11:41;;;;;;;7.90;4.00;;;;;;;27.81;47.78;99976.48;108767;1281;137317;-67
2022/06/27 09:14:40;;;;;;;4.40;3.50;;;;;;;27.80;47.82;99971.09;108888;1280;22465;-67
2022/06/27 09:17:15;;;;;;;8.80;4.00;;;;;;;27.80;48.58;99971.98;108954;1279;137908;-67
2022/06/27 09:19:53;;;;;;;4.00;3.60;;;;;;;27.86;48.05;99969.94;108761;1281;22482;-67
2022/06/27 09:22:28;;;;;;;5.80;3.30;;;;;;;27.94;48.38;99970.88;108827;1280;22547;-66
2022/06/27 09:25:13;;;;;;;4.30;3.30;;;;;;;28.00;47.89;99965.41;108809;1279;22474;-67
2022/06/27 09:27:50;;;;;;;7.20;4.20;;;;;;;28.03;47.99;99967.17;108667;1278;23043;-67
2022/06/27 09:30:20;;;;;;;8.40;3.70;;;;;;;28.08;47.49;99962.16;108566;1281;139133;-67
2022/06/27 09:32:50;;;;;;;10.60;4.50;;;;;;;28.14;46.69;99961.56;108889;1280;23221;-67
2022/06/27 09:35:31;;;;;;;8.60;3.80;;;;;;;28.19;46.48;99957.63;108795;1281;138096;-67
2022/06/27 09:38:00;;;;;;;8.70;3.70;;;;;;;28.24;46.20;99946.00;108792;1281;23130;-67
2022/06/27 09:40:29;;;;;;;6.30;3.30;;;;;;;28.30;46.26;99948.81;108652;1281;22469;-67
2022/06/27 09:43:03;;;;;;;6.20;3.50;;;;;;;28.36;46.61;99948.99;108690;1281;22465;-67
2022/06/27 09:45:31;;;;;;;9.90;3.70;;;;;;;28.42;46.43;99950.78;108879;1281;22490;-67
2022/06/27 09:48:03;;;;;;;6.40;3.30;;;;;;;28.47;45.71;99949.29;108722;1280;137823;-66
2022/06/27 09:50:33;;;;;;;3.60;3.20;;;;;;;28.50;45.05;99945.83;108827;1280;23135;-67
2022/06/27 09:53:00;;;;;;;12.60;3.40;;;;;;;28.50;44.87;99938.55;108615;1280;137908;-68
2022/06/27 09:55:27;;;;;;;6.00;3.70;;;;;;;28.53;45.10;99938.06;108740;1280;22970;-67
2022/06/27 09:57:55;;;;;;;8.80;3.30;;;;;;;28.58;45.47;99938.53;108787;1279;22416;-68
2022/06/27 10:00:23;;;;;;;13.80;4.00;;;;;;;28.61;44.69;99935.15;108770;1280;137261;-67
2022/06/27 10:02:51;;;;;;;8.50;3.70;;;;;;;28.58;44.69;99933.82;108973;1280;22456;-67
2022/06/27 10:05:18;;;;;;;7.30;4.30;;;;;;;28.51;44.72;99932.90;108878;1280;138941;-67
2022/06/27 10:08:02;;;;;;;5.00;3.60;;;;;;;28.51;44.84;99932.24;108791;1280;22647;-67
2022/06/27 10:11:00;;;;;;;7.20;3.70;;;;;;;28.59;45.40;99933.83;108622;1280;22415;-66
2022/06/27 10:13:31;;;;;;;8.90;3.20;;;;;;;28.64;45.67;99934.35;108968;1280;22485;-66
2022/06/27 10:15:58;;;;;;;6.50;3.30;;;;;;;28.64;46.53;99932.99;108624;1280;22402;-65
2022/06/27 10:18:25;;;;;;;5.50;3.40;;;;;;;28.66;45.83;99933.35;108657;1280;140897;-66
2022/06/27 10:20:52;;;;;;;3.30;2.90;;;;;;;28.63;44.81;99934.24;108712;1280;22581;-66
2022/06/27 10:23:26;;;;;;;3.30;3.00;;;;;;;28.55;44.34;99935.05;108849;1280;137945;-66
2022/06/27 10:25:53;;;;;;;5.70;3.30;;;;;;;28.45;44.88;99938.59;108906;1280;22459;-66
2022/06/27 10:28:22;;;;;;;4.90;3.10;;;;;;;28.38;45.41;99933.33;108854;1280;22473;-67
2022/06/27 10:30:59;;;;;;;6.80;3.60;;;;;;;28.34;46.32;99928.27;108922;1280;138146;-66
2022/06/27 10:33:26;;;;;;;5.60;3.60;;;;;;;28.35;45.97;99923.73;108966;1280;22451;-66
2022/06/27 10:38:24;;;;;;;5.20;3.00;;;;;;;28.56;45.09;99918.66;109052;1278;22465;-67
2022/06/27 10:40:51;;;;;;;3.70;3.30;;;;;;;28.68;44.91;99916.66;108974;1277;138243;-66
2022/06/27 10:43:38;;;;;;;4.10;3.50;;;;;;;28.76;44.41;99919.86;108931;1280;23227;-65
2022/06/27 10:46:08;;;;;;;6.40;3.50;;;;;;;28.88;44.22;99916.10;108947;1280;22260;-67
2022/06/27 10:48:36;;;;;;;7.00;3.40;;;;;;;28.93;43.97;99918.94;108902;1278;139026;-64
2022/06/27 10:51:18;;;;;;;5.70;3.40;;;;;;;28.93;43.76;99923.09;109013;1278;22657;-64
2022/06/27 10:53:46;;;;;;;7.00;3.80;;;;;;;28.89;43.41;99920.69;108776;1280;138648;-64
2022/06/27 10:56:28;;;;;;;4.10;3.20;;;;;;;28.86;44.12;99916.39;109038;1278;22376;-64
2022/06/27 10:58:55;;;;;;;5.00;3.60;;;;;;;28.86;43.83;99921.76;108860;1280;137855;-64
2022/06/27 11:01:22;;;;;;;7.10;3.40;;;;;;;28.82;43.90;99923.29;108884;1280;22416;-64
2022/06/27 11:03:51;;;;;;;8.90;3.60;;;;;;;28.78;44.19;99926.23;109018;1278;24186;-63
2022/06/27 11:06:17;;;;;;;7.20;3.60;;;;;;;28.72;42.90;99918.27;108816;1280;139707;-63
2022/06/27 11:08:46;;;;;;;4.90;3.30;;;;;;;28.69;42.75;99917.73;108998;1279;22626;-64
2022/06/27 11:11:30;;;;;;;4.40;3.10;;;;;;;28.66;41.12;99917.08;108903;1280;138257;-64
2022/06/27 11:14:00;;;;;;;4.30;3.60;;;;;;;28.62;41.38;99913.46;109037;1278;22468;-64
2022/06/27 11:16:29;;;;;;;5.70;3.00;;;;;;;28.60;41.14;99916.70;109004;1277;22499;-64
2022/06/27 11:19:03;;;;;;;7.00;3.60;;;;;;;28.63;39.99;99914.86;108866;1279;138532;-65
2022/06/27 11:21:35;;;;;;;8.60;2.80;;;;;;;28.69;39.35;99907.85;109019;1278;22484;-64
2022/06/27 11:24:07;;;;;;;9.20;2.80;;;;;;;28.75;38.72;99908.61;108853;1280;139383;-64
2022/06/27 11:26:44;;;;;;;9.10;3.00;;;;;;;28.84;37.88;99906.34;106490;1281;25369;-64
2022/06/27 11:32:08;;;;;;;8.40;2.90;;;;;;;29.07;39.60;99910.48;109044;1280;22418;-64
2022/06/27 11:34:42;;;;;;;5.20;2.80;;;;;;;29.15;38.89;99908.45;108987;1280;138531;-64
2022/06/27 11:37:09;;;;;;;3.80;2.90;;;;;;;29.17;38.21;99907.92;108995;1278;22563;-66
2022/06/27 11:39:36;;;;;;;6.50;2.50;;;;;;;29.13;38.00;99907.54;109008;1280;23027;-64
2022/06/27 11:42:11;;;;;;;5.60;3.10;;;;;;;29.12;37.76;99907.76;109005;1277;137783;-64
2022/06/27 11:44:59;;;;;;;3.60;2.90;;;;;;;29.14;37.13;99908.19;109034;1278;23592;-65